createdAt,value
2019-01-21T00:00:50.154Z,94.19
2019-01-21T00:03:19.547Z,94.23
2019-01-21T00:05:48.871Z,93.99
2019-01-21T00:08:17.994Z,94.03
2019-01-21T00:10:47.163Z,93.83
2019-01-21T00:13:16.270Z,93.67
2019-01-21T00:15:45.628Z,93.77
2019-01-21T00:18:14.781Z,93.73
2019-01-21T00:20:43.929Z,93.61
2019-01-21T00:23:13.037Z,93.89
2019-01-21T00:25:42.198Z,93.84
2019-01-21T00:28:11.295Z,93.76
2019-01-21T00:30:40.428Z,93.57
2019-01-21T00:33:09.688Z,93.45
2019-01-21T00:35:38.921Z,93.61
2019-01-21T00:38:08.034Z,93.40
2019-01-21T00:40:37.173Z,93.38
2019-01-21T00:43:06.270Z,93.71
2019-01-21T00:45:35.421Z,93.68
2019-01-21T00:48:04.639Z,93.87
2019-01-21T00:50:33.789Z,94.38
2019-01-21T00:53:02.888Z,94.10
2019-01-21T00:55:32.048Z,94.26
2019-01-21T00:58:01.146Z,94.28
2019-01-21T01:00:30.274Z,94.23
2019-01-21T01:02:59.473Z,94.06
2019-01-21T01:05:28.642Z,94.29
2019-01-21T01:07:57.743Z,93.86
2019-01-21T01:10:26.902Z,93.87
2019-01-21T01:12:55.947Z,93.90
2019-01-21T01:15:25.096Z,94.02
2019-01-21T01:17:54.776Z,93.74
2019-01-21T01:20:23.921Z,93.84
2019-01-21T01:22:53.036Z,93.85
2019-01-21T01:25:22.125Z,93.49
2019-01-21T01:27:51.212Z,93.24
2019-01-21T01:30:20.384Z,93.00
2019-01-21T01:32:49.473Z,92.99
2019-01-21T01:35:18.625Z,93.30
2019-01-21T01:37:47.732Z,93.24
2019-01-21T01:40:18.671Z,92.81
2019-01-21T01:42:48.246Z,92.78
2019-01-21T01:45:21.284Z,92.94
2019-01-21T01:48:00.349Z,92.95
2019-01-21T01:50:29.763Z,93.25
2019-01-21T01:52:59.477Z,93.39
2019-01-21T01:55:29.836Z,93.40
2019-01-21T01:58:00.972Z,93.24
2019-01-21T02:00:30.455Z,93.39
2019-01-21T02:02:59.674Z,93.24
2019-01-21T02:05:28.837Z,93.10
2019-01-21T02:07:58.009Z,93.10
2019-01-21T02:10:27.205Z,92.93
2019-01-21T02:12:56.300Z,92.82
2019-01-21T02:15:25.453Z,92.74
2019-01-21T02:17:54.594Z,93.01
2019-01-21T02:20:24.079Z,93.16
2019-01-21T02:22:58.536Z,93.28
2019-01-21T02:25:44.374Z,93.21
2019-01-21T02:28:27.793Z,93.41
2019-01-21T02:31:30.465Z,93.31
2019-01-21T02:34:18.040Z,93.04
2019-01-21T02:37:28.633Z,92.70
2019-01-21T02:40:34.330Z,92.48
2019-01-21T02:43:52.985Z,92.52
2019-01-21T02:46:37.898Z,92.60
2019-01-21T02:49:46.680Z,92.73
2019-01-21T02:52:56.680Z,92.80
2019-01-21T02:56:01.214Z,92.65
2019-01-21T02:59:20.316Z,92.23
2019-01-21T03:02:25.298Z,92.13
2019-01-21T03:05:54.198Z,92.00
2019-01-21T03:08:53.941Z,92.03
2019-01-21T03:12:01.236Z,92.21
2019-01-21T03:14:57.900Z,92.48
2019-01-21T03:18:08.240Z,92.32
2019-01-21T03:21:20.353Z,92.38
2019-01-21T03:24:14.302Z,92.27
2019-01-21T03:27:21.090Z,92.54
2019-01-21T03:30:31.963Z,92.58
2019-01-21T03:33:26.999Z,92.29
2019-01-21T03:36:24.984Z,92.81
2019-01-21T03:39:35.925Z,92.57
2019-01-21T03:42:22.693Z,92.62
2019-01-21T03:45:30.598Z,92.83
2019-01-21T03:48:39.486Z,92.95
2019-01-21T03:52:17.655Z,92.70
2019-01-21T03:54:51.774Z,92.38
2019-01-21T03:57:55.786Z,92.39
2019-01-21T04:00:59.687Z,92.26
2019-01-21T04:04:08.933Z,92.51
2019-01-21T04:07:07.866Z,92.71
2019-01-21T04:10:14.858Z,92.54
2019-01-21T04:13:13.659Z,92.15
2019-01-21T04:16:12.371Z,91.82
2019-01-21T04:19:13.890Z,91.76
2019-01-21T04:22:09.197Z,92.30
2019-01-21T04:25:13.104Z,92.67
2019-01-21T04:28:21.473Z,92.79
2019-01-21T04:31:23.496Z,92.59
2019-01-21T04:34:21.644Z,91.91
2019-01-21T04:37:20.568Z,92.21
2019-01-21T04:40:22.096Z,92.48
2019-01-21T04:43:34.148Z,92.44
2019-01-21T04:46:55.515Z,92.17
2019-01-21T04:50:10.612Z,92.02
2019-01-21T04:52:59.106Z,91.83
2019-01-21T04:56:06.391Z,92.20
2019-01-21T04:59:16.791Z,92.74
2019-01-21T05:02:19.820Z,92.89
2019-01-21T05:05:23.050Z,92.96
2019-01-21T05:08:20.584Z,92.93
2019-01-21T05:11:40.233Z,92.56
2019-01-21T05:14:45.447Z,92.06
2019-01-21T05:17:57.272Z,91.87
2019-01-21T05:21:19.672Z,92.20
2019-01-21T05:24:29.461Z,92.49
2019-01-21T05:27:30.784Z,92.83
2019-01-21T05:30:47.407Z,93.55
2019-01-21T05:33:51.770Z,93.48
2019-01-21T05:37:02.172Z,92.81
2019-01-21T05:39:59.798Z,92.44
2019-01-21T05:43:28.255Z,92.60
2019-01-21T05:46:53.047Z,92.78
2019-01-21T05:50:17.554Z,92.32
2019-01-21T05:53:14.305Z,92.22
2019-01-21T05:56:21.274Z,92.22
2019-01-21T05:59:20.873Z,92.31
2019-01-21T06:02:54.147Z,92.24
2019-01-21T06:05:42.320Z,92.29
2019-01-21T06:09:13.665Z,92.13
2019-01-21T06:12:20.832Z,91.79
2019-01-21T06:15:39.961Z,91.78
2019-01-21T06:18:35.218Z,92.06
2019-01-21T06:21:45.363Z,92.21
2019-01-21T06:24:39.421Z,91.86
2019-01-21T06:27:45.076Z,91.65
2019-01-21T06:30:56.582Z,91.86
2019-01-21T06:34:01.345Z,91.92
2019-01-21T06:36:44.716Z,92.16
2019-01-21T06:39:58.700Z,91.92
2019-01-21T06:42:45.359Z,92.10
2019-01-21T06:46:14.151Z,91.82
2019-01-21T06:49:19.169Z,91.70
2019-01-21T06:52:38.252Z,91.22
2019-01-21T06:55:53.093Z,91.04
2019-01-21T06:59:13.028Z,91.12
2019-01-21T07:01:53.936Z,91.02
2019-01-21T07:04:50.330Z,91.14
2019-01-21T07:08:03.860Z,91.28
2019-01-21T07:11:04.310Z,91.45
2019-01-21T07:14:14.788Z,91.21
2019-01-21T07:17:12.411Z,91.24
2019-01-21T07:20:01.195Z,91.58
2019-01-21T07:23:12.556Z,91.12
2019-01-21T07:26:13.756Z,91.10
2019-01-21T07:29:05.019Z,91.29
2019-01-21T07:32:06.085Z,91.48
2019-01-21T07:35:06.591Z,91.45
2019-01-21T07:38:13.312Z,91.54
2019-01-21T07:41:22.490Z,92.24
2019-01-21T07:44:28.711Z,93.10
2019-01-21T07:47:33.317Z,93.55
2019-01-21T07:50:45.914Z,93.94
2019-01-21T07:54:01.154Z,93.25
2019-01-21T07:57:06.162Z,92.86
2019-01-21T08:00:31.752Z,92.81
2019-01-21T08:03:24.178Z,92.71
2019-01-21T08:06:06.364Z,92.75
2019-01-21T08:09:10.373Z,92.68
2019-01-21T08:12:02.111Z,92.53
2019-01-21T08:15:02.418Z,92.42
2019-01-21T08:18:14.372Z,92.12
2019-01-21T08:21:03.284Z,92.04
2019-01-21T08:23:48.119Z,92.40
2019-01-21T08:26:57.399Z,92.87
2019-01-21T08:29:59.446Z,93.01
2019-01-21T08:32:47.826Z,93.43
2019-01-21T08:35:57.874Z,93.57
2019-01-21T08:38:43.295Z,93.70
2019-01-21T08:41:46.767Z,93.84
2019-01-21T08:44:36.143Z,93.95
2019-01-21T08:47:21.044Z,94.98
2019-01-21T08:50:07.367Z,95.54
2019-01-21T08:53:11.170Z,95.25
2019-01-21T08:56:30.379Z,95.12
2019-01-21T08:59:15.780Z,95.42
2019-01-21T09:02:22.159Z,95.43
2019-01-21T09:05:32.853Z,94.82
2019-01-21T09:08:27.731Z,93.54
2019-01-21T09:11:06.549Z,93.74
2019-01-21T09:14:35.244Z,94.26
2019-01-21T09:17:36.290Z,94.77
2019-01-21T09:20:51.847Z,94.93
2019-01-21T09:23:46.204Z,95.07
2019-01-21T09:26:39.303Z,95.39
2019-01-21T09:29:47.211Z,95.17
2019-01-21T09:33:06.402Z,94.88
2019-01-21T09:36:25.496Z,94.78
2019-01-21T09:39:30.666Z,94.87
2019-01-21T09:42:43.561Z,94.89
2019-01-21T09:45:54.999Z,94.94
2019-01-21T09:48:22.462Z,95.38
2019-01-21T09:50:52.675Z,95.52
2019-01-21T09:53:21.804Z,95.30
2019-01-21T09:55:52.934Z,94.88
2019-01-21T09:58:24.900Z,94.48
2019-01-21T10:00:54.637Z,94.30
2019-01-21T10:03:24.583Z,94.37
2019-01-21T10:05:58.481Z,94.45
2019-01-21T10:08:50.895Z,94.44
2019-01-21T10:12:04.910Z,94.01
2019-01-21T10:15:20.021Z,93.66
2019-01-21T10:18:29.609Z,93.25
2019-01-21T10:21:23.050Z,92.79
2019-01-21T10:24:18.600Z,92.26
2019-01-21T10:27:41.503Z,92.06
2019-01-21T10:30:47.864Z,91.30
2019-01-21T10:33:56.458Z,89.79
2019-01-21T10:36:56.189Z,89.22
2019-01-21T10:39:58.995Z,89.68
2019-01-21T10:42:53.243Z,89.85
2019-01-21T10:45:44.867Z,88.35
2019-01-21T10:48:55.139Z,87.96
2019-01-21T10:52:20.749Z,88.28
2019-01-21T10:55:08.695Z,86.79
2019-01-21T10:58:10.284Z,86.47
2019-01-21T11:01:24.967Z,85.44
2019-01-21T11:04:17.249Z,85.76
2019-01-21T11:07:29.423Z,84.80
2019-01-21T11:10:23.642Z,84.88
2019-01-21T11:13:21.811Z,85.67
2019-01-21T11:16:19.835Z,85.75
2019-01-21T11:19:31.692Z,85.72
2019-01-21T11:22:13.379Z,84.79
2019-01-21T11:25:28.446Z,84.35
2019-01-21T11:28:25.403Z,85.61
2019-01-21T11:31:16.279Z,85.77
2019-01-21T11:34:32.793Z,83.91
2019-01-21T11:37:34.531Z,84.23
2019-01-21T11:40:51.315Z,85.10
2019-01-21T11:43:44.521Z,84.32
2019-01-21T11:46:34.776Z,84.26
2019-01-21T11:49:34.929Z,83.89
2019-01-21T11:52:47.100Z,83.92
2019-01-21T11:55:29.041Z,83.93
2019-01-21T11:58:45.447Z,84.50
2019-01-21T12:02:14.047Z,84.56
2019-01-21T12:05:01.994Z,83.65
2019-01-21T12:08:13.649Z,84.07
2019-01-21T12:11:32.016Z,83.65
2019-01-21T12:14:26.316Z,84.08
2019-01-21T12:17:38.886Z,84.51
2019-01-21T12:20:37.795Z,84.97
2019-01-21T12:23:50.756Z,85.17
2019-01-21T12:27:01.407Z,84.05
2019-01-21T12:30:08.996Z,84.21
2019-01-21T12:33:20.258Z,83.63
2019-01-21T12:35:59.722Z,83.32
2019-01-21T12:39:22.045Z,82.13
2019-01-21T12:42:24.907Z,81.22
2019-01-21T12:45:27.182Z,81.42
2019-01-21T12:48:18.716Z,81.72
2019-01-21T12:51:32.469Z,81.70
2019-01-21T12:55:10.198Z,81.74
2019-01-21T12:58:18.900Z,81.30
2019-01-21T13:01:13.480Z,82.30
2019-01-21T13:04:45.225Z,83.12
2019-01-21T13:07:40.851Z,83.14
2019-01-21T13:10:46.584Z,83.10
2019-01-21T13:13:55.818Z,82.51
2019-01-21T13:16:47.141Z,80.43
2019-01-21T13:19:53.738Z,81.16
2019-01-21T13:23:03.362Z,81.45
2019-01-21T13:26:22.111Z,79.32
2019-01-21T13:29:25.705Z,78.86
2019-01-21T13:32:26.881Z,80.37
2019-01-21T13:35:24.243Z,80.26
2019-01-21T13:38:39.273Z,80.68
2019-01-21T13:42:01.858Z,81.01
2019-01-21T13:45:36.490Z,82.16
2019-01-21T13:48:41.794Z,82.45
2019-01-21T13:51:53.736Z,81.46
2019-01-21T13:54:52.327Z,82.09
2019-01-21T13:57:54.955Z,81.91
2019-01-21T14:00:48.149Z,82.10
2019-01-21T14:04:01.033Z,82.88
2019-01-21T14:07:08.127Z,82.26
2019-01-21T14:10:00.570Z,82.22
2019-01-21T14:13:16.768Z,82.04
2019-01-21T14:16:23.501Z,81.70
2019-01-21T14:19:12.668Z,82.68
2019-01-21T14:22:42.174Z,82.96
2019-01-21T14:26:04.165Z,82.47
2019-01-21T14:29:13.915Z,81.85
2019-01-21T14:32:24.354Z,81.74
2019-01-21T14:35:05.574Z,81.16
2019-01-21T14:38:05.606Z,80.95
2019-01-21T14:40:52.822Z,80.67
2019-01-21T14:44:04.121Z,81.76
2019-01-21T14:46:46.750Z,82.37
2019-01-21T14:49:29.378Z,83.46
2019-01-21T14:52:33.097Z,82.83
2019-01-21T14:55:32.417Z,84.00
2019-01-21T14:58:39.203Z,86.12
2019-01-21T15:01:43.950Z,87.32
2019-01-21T15:04:58.801Z,87.46
2019-01-21T15:07:43.833Z,87.74
2019-01-21T15:10:26.659Z,88.00
2019-01-21T15:13:08.269Z,87.79
2019-01-21T15:16:15.266Z,87.81
2019-01-21T15:19:08.573Z,87.59
2019-01-21T15:22:17.923Z,86.95
2019-01-21T15:25:20.368Z,86.35
2019-01-21T15:28:38.660Z,88.26
2019-01-21T15:31:39.425Z,89.62
2019-01-21T15:34:30.009Z,90.16
2019-01-21T15:37:28.829Z,90.71
2019-01-21T15:40:29.316Z,91.19
2019-01-21T15:43:12.565Z,91.58
2019-01-21T15:46:05.171Z,91.99
2019-01-21T15:49:02.433Z,92.76
2019-01-21T15:52:14.568Z,93.71
2019-01-21T15:55:15.798Z,93.75
2019-01-21T15:58:19.071Z,93.21
2019-01-21T16:01:19.370Z,93.24
2019-01-21T16:04:02.230Z,93.56
2019-01-21T16:07:30.770Z,93.92
2019-01-21T16:10:47.099Z,94.42
2019-01-21T16:13:38.353Z,94.69
2019-01-21T16:16:44.355Z,94.73
2019-01-21T16:19:36.010Z,94.74
2019-01-21T16:22:41.236Z,95.01
2019-01-21T16:25:49.744Z,95.43
2019-01-21T16:28:46.953Z,95.04
2019-01-21T16:31:27.256Z,95.26
2019-01-21T16:34:22.907Z,95.40
2019-01-21T16:37:45.175Z,95.56
2019-01-21T16:40:35.900Z,95.44
2019-01-21T16:43:05.204Z,95.62
2019-01-21T16:45:34.313Z,95.75
2019-01-21T16:48:03.458Z,95.46
2019-01-21T16:50:32.557Z,95.20
2019-01-21T16:53:02.089Z,95.07
2019-01-21T16:55:31.391Z,95.47
2019-01-21T16:58:00.492Z,95.64
2019-01-21T17:00:29.611Z,96.04
2019-01-21T17:02:58.722Z,96.33
2019-01-21T17:05:27.862Z,96.07
2019-01-21T17:07:57.149Z,95.94
2019-01-21T17:10:26.390Z,95.67
2019-01-21T17:12:55.719Z,95.97
2019-01-21T17:15:24.886Z,96.40
2019-01-21T17:17:54.014Z,96.55
2019-01-21T17:20:23.426Z,96.51
2019-01-21T17:22:52.562Z,96.73
2019-01-21T17:25:29.578Z,96.79
2019-01-21T17:27:58.740Z,96.34
2019-01-21T17:30:27.896Z,95.75
2019-01-21T17:32:57.085Z,95.54
2019-01-21T17:35:26.221Z,95.29
2019-01-21T17:37:55.322Z,94.95
2019-01-21T17:40:24.467Z,94.49
2019-01-21T17:42:53.700Z,94.46
2019-01-21T17:45:22.913Z,94.38
2019-01-21T17:47:52.063Z,94.36
2019-01-21T17:50:21.273Z,94.29
2019-01-21T17:52:50.434Z,94.34
2019-01-21T17:55:19.778Z,94.78
2019-01-21T17:57:48.883Z,94.85
2019-01-21T18:00:22.934Z,95.31
2019-01-21T18:02:52.030Z,95.88
2019-01-21T18:05:21.792Z,95.72
2019-01-21T18:07:51.159Z,95.51
2019-01-21T18:10:21.678Z,95.52
2019-01-21T18:13:03.355Z,95.81
2019-01-21T18:15:32.492Z,96.43
2019-01-21T18:18:01.721Z,96.78
2019-01-21T18:20:30.845Z,95.98
2019-01-21T18:23:00.140Z,95.58
2019-01-21T18:25:29.382Z,95.41
2019-01-21T18:27:58.532Z,95.73
2019-01-21T18:30:28.424Z,96.19
2019-01-21T18:32:57.576Z,96.11
2019-01-21T18:35:26.878Z,95.98
2019-01-21T18:37:56.840Z,95.94
2019-01-21T18:40:26.133Z,95.57
2019-01-21T18:42:55.591Z,95.36
2019-01-21T18:45:26.934Z,95.04
2019-01-21T18:47:56.083Z,95.04
2019-01-21T18:50:25.517Z,94.97
2019-01-21T18:52:54.808Z,95.77
2019-01-21T18:55:23.910Z,96.24
2019-01-21T18:57:56.059Z,96.51
2019-01-21T19:00:25.911Z,96.70
2019-01-21T19:02:55.157Z,96.84
2019-01-21T19:05:24.620Z,96.49
2019-01-21T19:07:53.845Z,95.85
2019-01-21T19:10:23.019Z,95.24
2019-01-21T19:12:52.525Z,95.15
2019-01-21T19:15:30.179Z,95.25
2019-01-21T19:17:59.400Z,95.47
2019-01-21T19:20:28.655Z,95.06
2019-01-21T19:22:58.016Z,94.63
2019-01-21T19:25:27.258Z,94.49
2019-01-21T19:27:56.393Z,94.48
2019-01-21T19:30:27.016Z,94.87
2019-01-21T19:32:56.388Z,94.81
2019-01-21T19:35:31.454Z,94.84
2019-01-21T19:38:00.732Z,95.27
2019-01-21T19:40:29.957Z,95.16
2019-01-21T19:42:59.169Z,94.66
2019-01-21T19:45:28.489Z,94.33
2019-01-21T19:47:57.645Z,94.06
2019-01-21T19:50:26.908Z,93.87
2019-01-21T19:52:56.187Z,94.04
2019-01-21T19:55:28.564Z,94.22
2019-01-21T19:57:57.743Z,94.25
2019-01-21T20:00:28.045Z,94.11
2019-01-21T20:02:57.199Z,94.27
2019-01-21T20:05:26.355Z,94.15
2019-01-21T20:07:55.507Z,94.13
2019-01-21T20:10:24.747Z,94.31
2019-01-21T20:12:54.028Z,94.23
2019-01-21T20:15:23.233Z,94.16
2019-01-21T20:17:52.666Z,93.78
2019-01-21T20:20:24.490Z,93.86
2019-01-21T20:22:57.631Z,94.50
2019-01-21T20:25:24.777Z,95.59
2019-01-21T20:27:54.595Z,95.80
2019-01-21T20:30:24.279Z,95.86
2019-01-21T20:32:54.255Z,95.57
2019-01-21T20:35:23.951Z,95.39
2019-01-21T20:37:53.880Z,95.48
2019-01-21T20:40:25.415Z,95.25
2019-01-21T20:42:55.290Z,95.28
2019-01-21T20:45:24.540Z,95.17
2019-01-21T20:47:54.198Z,94.99
2019-01-21T20:50:28.634Z,94.77
2019-01-21T20:52:57.771Z,94.64
2019-01-21T20:55:27.644Z,95.15
2019-01-21T20:57:56.777Z,95.58
2019-01-21T21:00:27.544Z,95.22
2019-01-21T21:02:57.523Z,94.79
2019-01-21T21:05:26.957Z,94.60
2019-01-21T21:07:58.466Z,94.64
2019-01-21T21:10:36.875Z,94.48
2019-01-21T21:13:07.636Z,94.45
2019-01-21T21:15:37.715Z,94.44
2019-01-21T21:18:06.831Z,94.31
2019-01-21T21:20:36.090Z,94.11
2019-01-21T21:23:06.586Z,94.64
2019-01-21T21:25:35.840Z,94.94
2019-01-21T21:28:05.297Z,94.61
2019-01-21T21:30:34.687Z,94.25
2019-01-21T21:33:04.104Z,94.21
2019-01-21T21:35:33.206Z,94.41
2019-01-21T21:38:02.355Z,94.52
2019-01-21T21:40:31.725Z,94.42
2019-01-21T21:43:00.900Z,94.17
2019-01-21T21:45:30.066Z,93.93
2019-01-21T21:48:01.198Z,93.94
2019-01-21T21:50:32.285Z,94.03
2019-01-21T21:53:01.704Z,94.19
2019-01-21T21:55:31.627Z,94.38
2019-01-21T21:58:00.988Z,94.34
2019-01-21T22:00:30.379Z,94.11
2019-01-21T22:02:59.584Z,93.73
2019-01-21T22:05:29.083Z,93.66
2019-01-21T22:07:58.222Z,94.02
2019-01-21T22:10:28.993Z,94.29
2019-01-21T22:12:58.252Z,94.38
2019-01-21T22:15:27.805Z,94.22
2019-01-21T22:17:57.113Z,93.96
2019-01-21T22:20:26.400Z,94.36
2019-01-21T22:22:55.765Z,94.41
2019-01-21T22:25:25.035Z,94.90
2019-01-21T22:27:54.219Z,94.81
2019-01-21T22:30:26.772Z,94.92
2019-01-21T22:32:55.916Z,94.53
2019-01-21T22:35:25.416Z,94.14
2019-01-21T22:37:54.671Z,94.25
2019-01-21T22:40:24.369Z,94.18
2019-01-21T22:42:53.641Z,93.83
2019-01-21T22:45:23.150Z,93.49
2019-01-21T22:47:52.343Z,93.84
2019-01-21T22:50:21.811Z,94.15
2019-01-21T22:52:50.894Z,94.04
2019-01-21T22:55:20.068Z,93.85
2019-01-21T22:57:49.211Z,93.57
2019-01-21T23:00:54.793Z,93.98
2019-01-21T23:03:24.728Z,95.03
2019-01-21T23:05:53.846Z,95.18
2019-01-21T23:08:23.533Z,94.75
2019-01-21T23:10:52.679Z,94.33
2019-01-21T23:13:21.795Z,93.75
2019-01-21T23:15:50.965Z,93.74
2019-01-21T23:18:20.132Z,94.13
2019-01-21T23:20:49.729Z,94.38
2019-01-21T23:23:18.871Z,94.49
2019-01-21T23:25:47.989Z,94.66
2019-01-21T23:28:17.111Z,94.55
2019-01-21T23:30:46.614Z,94.34
2019-01-21T23:33:15.763Z,94.52
2019-01-21T23:35:45.335Z,94.53
2019-01-21T23:38:14.458Z,94.58
2019-01-21T23:40:43.641Z,94.69
2019-01-21T23:43:12.756Z,94.81
2019-01-21T23:45:41.840Z,94.86
2019-01-21T23:48:11.160Z,94.79
2019-01-21T23:50:40.293Z,94.36
2019-01-21T23:53:09.429Z,94.06
2019-01-21T23:55:38.522Z,93.87
2019-01-21T23:58:07.667Z,93.76
